| time (UTC) | temp C | wind direction | speed KPH | gust KPH | rain 1hr cm | rain 24hr cm | rain mn cm | humidity % | barometer mb |
| 20260506140012 | 8 | 238 | 32.2 | 41.8 | 0.00 | 0.00 | 0.00 | 46 | 1016.4 |
| 20260506134517 | 8 | 238 | 19.3 | 27.4 | 0.00 | 0.00 | 0.00 | 54 | 1016.5 |
| 20260506133018 | 7 | 222 | 12.9 | 22.5 | 0.00 | 0.00 | 0.00 | 62 | 1016.6 |
| 20260506131520 | 5 | 244 | 12.9 | 17.7 | 0.00 | 0.00 | 0.00 | 70 | 1016.6 |
| 20260506130012 | 3 | 223 | 12.9 | 17.7 | 0.00 | 0.00 | 0.00 | 75 | 1016.6 |
| 20260506124516 | 3 | 223 | 12.9 | 17.7 | 0.00 | 0.00 | 0.00 | 77 | 1016.3 |
| 20260506123019 | 2 | 239 | 11.3 | 17.7 | 0.00 | 0.00 | 0.00 | 79 | 1016.2 |
| 20260506121520 | 2 | 215 | 14.5 | 17.7 | 0.00 | 0.00 | 0.00 | 78 | 1016.1 |
| 20260506120030 | 2 | 230 | 14.5 | 17.7 | 0.00 | 0.00 | 0.00 | 78 | 1015.9 |
| 20260506114514 | 2 | 220 | 11.3 | 16.1 | 0.00 | 0.00 | 0.00 | 77 | 1015.8 |
| 20260506113019 | 3 | 231 | 11.3 | 16.1 | 0.00 | 0.00 | 0.00 | 75 | 1015.8 |
| 20260506111521 | 3 | 244 | 9.7 | 14.5 | 0.00 | 0.00 | 0.00 | 73 | 1015.8 |
| 20260506110019 | 3 | 238 | 8.0 | 14.5 | 0.00 | 0.00 | 0.00 | 71 | 1015.6 |
| 20260506104515 | 3 | 244 | 9.7 | 14.5 | 0.00 | 0.00 | 0.00 | 71 | 1015.5 |
| 20260506103021 | 3 | 257 | 9.7 | 14.5 | 0.00 | 0.00 | 0.00 | 74 | 1015.3 |
| 20260506101522 | 5 | 259 | 4.8 | 11.3 | 0.00 | 0.00 | 0.00 | 70 | 1015.3 |
| 20260506100020 | 5 | 254 | 6.4 | 9.7 | 0.00 | 0.00 | 0.00 | 70 | 1015.3 |
| 20260506094516 | 5 | 254 | 8.0 | 11.3 | 0.00 | 0.00 | 0.00 | 69 | 1015.4 |
| 20260506093027 | 5 | 252 | 3.2 | 8.0 | 0.00 | 0.00 | 0.00 | 70 | 1015.2 |
| 20260506091517 | 6 | 240 | 8.0 | 16.1 | 0.00 | 0.00 | 0.00 | 66 | 1015.1 |
| 20260506090017 | 7 | 257 | 11.3 | 14.5 | 0.00 | 0.00 | 0.00 | 65 | 1015.0 |
| 20260506084518 | 7 | 259 | 9.7 | 12.9 | 0.00 | 0.00 | 0.00 | 66 | 1015.1 |
| 20260506083019 | 7 | 253 | 6.4 | 14.5 | 0.00 | 0.00 | 0.00 | 66 | 1014.8 |
| 20260506081516 | 7 | 302 | 6.4 | 14.5 | 0.00 | 0.00 | 0.00 | 67 | 1014.7 |
| 20260506073011 | 7 | 290 | 1.6 | 6.4 | 0.00 | 0.00 | 0.00 | 73 | 1014.9 |
| 20260506071512 | 7 | 271 | 1.6 | 6.4 | 0.00 | 0.00 | 0.00 | 75 | 1015.0 |
| 20260506061510 | 7 | 311 | 11.3 | 17.7 | 0.00 | 0.00 | 0.00 | 75 | 1014.7 |
| 20260506044517 | 10 | 306 | 11.3 | 24.1 | 0.00 | 0.00 | 0.00 | 63 | 1014.4 |
| 20260506043003 | 10 | 280 | 12.9 | 29.0 | 0.00 | 0.00 | 0.00 | 61 | 1014.2 |
| 20260506041506 | 10 | 241 | 11.3 | 16.1 | 0.00 | 0.00 | 0.00 | 69 | 1014.0 |
| 20260506040017 | 9 | 292 | 4.8 | 9.7 | 0.00 | 0.00 | 0.00 | 1013.8 | |
| 20260506034516 | 9 | 240 | 6.4 | 11.3 | 0.00 | 0.00 | 0.00 | 67 | 1013.6 |
| 20260506033013 | 9 | 217 | 8.0 | 16.1 | 0.00 | 0.00 | 0.00 | 65 | 1013.4 |
| 20260506031506 | 9 | 246 | 8.0 | 11.3 | 0.00 | 0.00 | 0.00 | 62 | 1013.2 |
| 20260506030009 | 10 | 241 | 6.4 | 16.1 | 0.00 | 0.00 | 0.00 | 59 | 1013.0 |
| 20260506024513 | 10 | 260 | 6.4 | 16.1 | 0.00 | 0.00 | 0.00 | 61 | 1012.9 |
| 20260506023016 | 10 | 244 | 12.9 | 20.9 | 0.00 | 0.00 | 0.00 | 58 | 1012.7 |
| 20260506021514 | 11 | 219 | 19.3 | 38.6 | 0.00 | 0.00 | 0.00 | 57 | 1012.6 |
| 20260506020008 | 11 | 217 | 11.3 | 14.5 | 0.00 | 0.00 | 0.00 | 56 | 1012.6 |
| 20260506014511 | 11 | 250 | 6.4 | 12.9 | 0.00 | 0.00 | 0.00 | 56 | 1011.8 |
| 20260506013012 | 12 | 281 | 6.4 | 14.5 | 0.00 | 0.00 | 0.00 | 54 | 1011.3 |
| 20260506011512 | 13 | 285 | 14.5 | 20.9 | 0.00 | 0.00 | 0.00 | 49 | 1011.2 |
| 20260506010017 | 14 | 290 | 11.3 | 22.5 | 0.00 | 0.00 | 0.00 | 50 | 1011.2 |
| 20260506004519 | 15 | 266 | 11.3 | 29.0 | 0.00 | 0.00 | 0.00 | 49 | 1011.2 |
| 20260506003012 | 15 | 277 | 11.3 | 22.5 | 0.00 | 0.00 | 0.00 | 50 | 1011.0 |
| 20260506001512 | 15 | 319 | 19.3 | 27.4 | 0.00 | 0.00 | 0.00 | 49 | 1010.9 |
| 20260506000012 | 15 | 248 | 11.3 | 24.1 | 0.00 | 0.00 | 0.00 | 49 | 1010.9 |
| 20260505234511 | 15 | 292 | 14.5 | 40.2 | 0.00 | 0.00 | 0.00 | 51 | 1010.9 |
| 20260505233011 | 15 | 296 | 22.5 | 35.4 | 0.00 | 0.00 | 0.00 | 52 | 1010.8 |
| 20260505231513 | 15 | 255 | 16.1 | 32.2 | 0.00 | 0.00 | 0.00 | 51 | 1010.7 |
| 20260505230028 | 15 | 290 | 27.4 | 40.2 | 0.00 | 0.00 | 0.00 | 49 | 1010.8 |
| 20260505224512 | 15 | 275 | 20.9 | 48.3 | 0.00 | 0.00 | 0.00 | 50 | 1010.9 |
| 20260505223009 | 16 | 289 | 25.7 | 37.0 | 0.00 | 0.00 | 0.00 | 45 | 1011.4 |
| 20260505221512 | 16 | 289 | 20.9 | 30.6 | 0.00 | 0.00 | 0.00 | 48 | 1010.9 |
| 20260505220014 | 17 | 301 | 17.7 | 32.2 | 0.00 | 0.00 | 0.00 | 45 | 1010.8 |
| 20260505214515 | 17 | 325 | 24.1 | 33.8 | 0.00 | 0.00 | 0.00 | 45 | 1010.7 |
| 20260505213016 | 17 | 315 | 22.5 | 45.1 | 0.00 | 0.00 | 0.00 | 45 | 1011.1 |
| 20260505211516 | 16 | 292 | 32.2 | 46.7 | 0.00 | 0.00 | 0.00 | 43 | 1011.3 |
| 20260505210014 | 17 | 272 | 29.0 | 41.8 | 0.00 | 0.00 | 0.00 | 47 | 1011.6 |
| 20260505204507 | 16 | 238 | 19.3 | 29.0 | 0.00 | 0.00 | 0.00 | 49 | 1011.7 |
| 20260505203014 | 15 | 214 | 29.0 | 38.6 | 0.00 | 0.00 | 0.00 | 52 | 1012.3 |
| 20260505201513 | 17 | 249 | 27.4 | 54.7 | 0.00 | 0.00 | 0.00 | 42 | 1011.7 |
| 20260505200012 | 18 | 219 | 25.7 | 48.3 | 0.00 | 0.00 | 0.00 | 41 | 1011.9 |
| 20260505194513 | 17 | 225 | 29.0 | 41.8 | 0.00 | 0.00 | 0.00 | 45 | 1012.0 |
| 20260505193009 | 16 | 219 | 32.2 | 40.2 | 0.00 | 0.00 | 0.00 | 45 | 1012.4 |
| 20260505191513 | 15 | 194 | 30.6 | 43.5 | 0.00 | 0.00 | 0.00 | 50 | 1012.8 |
| 20260505190015 | 15 | 225 | 30.6 | 40.2 | 0.00 | 0.00 | 0.00 | 52 | 1013.0 |
| 20260505184512 | 15 | 192 | 32.2 | 48.3 | 0.00 | 0.00 | 0.00 | 53 | 1013.1 |
| 20260505183014 | 15 | 199 | 29.0 | 43.5 | 0.00 | 0.00 | 0.00 | 57 | 1013.3 |
| 20260505181510 | 14 | 209 | 29.0 | 40.2 | 0.00 | 0.00 | 0.00 | 58 | 1013.4 |
| 20260505180011 | 12 | 213 | 24.1 | 33.8 | 0.00 | 0.00 | 0.00 | 61 | 1013.6 |
| 20260505174518 | 12 | 207 | 19.3 | 27.4 | 0.00 | 0.00 | 0.00 | 65 | 1013.8 |
| 20260505173014 | 12 | 198 | 20.9 | 27.4 | 0.00 | 0.00 | 0.00 | 71 | 1013.8 |
| 20260505171511 | 11 | 198 | 16.1 | 24.1 | 0.00 | 0.00 | 0.00 | 71 | 1013.8 |
| 20260505170012 | 11 | 194 | 16.1 | 22.5 | 0.00 | 0.00 | 0.00 | 71 | 1014.0 |
| 20260505164512 | 10 | 200 | 11.3 | 19.3 | 0.00 | 0.00 | 0.00 | 77 | 1014.0 |
| 20260505163014 | 10 | 215 | 17.7 | 25.7 | 0.00 | 0.00 | 0.00 | 79 | 1014.2 |
| 20260505161514 | 10 | 219 | 17.7 | 24.1 | 0.00 | 0.00 | 0.00 | 76 | 1014.3 |
| 20260505153028 | 11 | 220 | 16.1 | 25.7 | 0.00 | 0.00 | 0.00 | 64 | 1013.9 |
| 20260505151514 | 12 | 226 | 19.3 | 25.7 | 0.00 | 0.00 | 0.00 | 57 | 1014.0 |